El Hierro > WETTERSTATION Vivero Forestal

AKTUELLE DATEN Online

Letztes Update am 19 minutos

10.8 ºC

Temperatur

95

Feuchtigkeit (%)

900.6

Druck (mb)

0

Niederschlag (mm)

0 SO

Wind (Km/h)

TÄGLICHE DATEN

Temperatur in den letzten 24 Stunden (ºC)

Luftfeuchtigkeit letzte 24 Stunden (%)

Atmosphärischer Druck in den letzten 24 Stunden últimas 24 horas (mb)

Niederschläge in den letzten 24 Stunden (mm)

Windböen in den letzten 24 Stunden (Km/h)

Stunde Temperatur (°C) ºC Niederschlag (mm) mm Druck (mb) mb Feuchtigkeit (%) % Wind (Km/h) km/h
28 - 23:00 10.7 0 902 95 1.8 N
29 - 00:00 10.1 0 901 94 0.4 NO
29 - 01:00 10.2 0 901 96 1.4 N
29 - 02:00 10.4 0 901 95 2.9 N
29 - 03:00 10.8 0 900 95 1.1 NW
29 - 04:00 10.5 0 900 94 2.5 N
29 - 05:00 10.6 0 900 94 4 NW
29 - 06:00 11.1 0 900 95 0.4 O
29 - 07:00 11.1 0 900 94 0 NO
29 - 08:00 11.5 0 901 91 0 NW
29 - 09:00 12.7 0 901 93 2.5 S
29 - 10:00 12.7 0 901 94 1.8 O
29 - 11:00 12.5 0 901 97 0 S
29 - 12:00 12.2 0 901 98 1.8 O
29 - 13:00 12.3 0 901 99 1.8 NW
29 - 14:00 12.7 0 901 98 0.7 SW
29 - 15:00 13.1 0 901 92 1.4 SO
29 - 16:00 14.4 0 901 85 3.2 N
29 - 17:00 14.1 0 900 92 1.4 NW
29 - 18:00 12.9 0 900 95 0.4 S
29 - 19:00 12.1 0 900 94 1.4 O
29 - 20:00 13 0 901 87 1.1 NO
29 - 21:00 11.2 0 901 90 0.7 SO
29 - 22:00 10.9 0 901 94 1.4 SO
29 - 23:00 10.8 0 901 95 0 SO
Apalmet nutzt eigene Cookies sowie Cookies von Dritten um unsere Dienstleistungen zu verbessern Cookies.